createdAt,value
2022-12-31T00:01:52.899Z,100685.02
2022-12-31T00:04:26.053Z,100684.00
2022-12-31T00:06:59.575Z,100679.70
2022-12-31T00:09:32.427Z,100675.20
2022-12-31T00:12:06.357Z,100669.75
2022-12-31T00:14:39.164Z,100669.75
2022-12-31T00:17:12.152Z,100668.06
2022-12-31T00:19:45.681Z,100669.48
2022-12-31T00:22:18.428Z,100671.18
2022-12-31T00:24:51.409Z,100668.19
2022-12-31T00:27:26.082Z,100670.77
2022-12-31T00:30:04.252Z,100663.27
2022-12-31T00:32:34.032Z,100663.02
2022-12-31T00:35:08.253Z,100663.14
2022-12-31T00:37:41.105Z,100655.36
2022-12-31T00:40:14.791Z,100652.14
2022-12-31T00:42:48.206Z,100647.33
2022-12-31T00:45:21.083Z,100650.07
2022-12-31T00:47:53.782Z,100658.13
2022-12-31T00:50:26.596Z,100650.22
2022-12-31T00:52:59.774Z,100643.98
2022-12-31T00:55:33.325Z,100650.20
2022-12-31T00:58:06.279Z,100647.09
2022-12-31T01:00:39.891Z,100640.85
2022-12-31T01:03:13.083Z,100649.78
2022-12-31T01:05:46.244Z,100651.73
2022-12-31T01:08:20.209Z,100655.22
2022-12-31T01:11:11.373Z,100662.09
2022-12-31T01:13:44.581Z,100661.82
2022-12-31T01:16:20.266Z,100655.19
2022-12-31T01:18:53.676Z,100657.13
2022-12-31T01:21:27.028Z,100665.94
2022-12-31T01:24:00.877Z,100662.05
2022-12-31T01:26:33.967Z,100658.68
2022-12-31T01:29:07.960Z,100661.89
2022-12-31T01:31:41.915Z,100658.53
2022-12-31T01:34:14.888Z,100654.88
2022-12-31T01:36:47.847Z,100655.53
2022-12-31T01:39:20.721Z,100645.41
2022-12-31T01:41:53.581Z,100643.55
2022-12-31T01:44:34.863Z,100650.03
2022-12-31T01:47:10.057Z,100647.84
2022-12-31T01:49:50.173Z,100639.16
2022-12-31T01:52:42.083Z,100648.73
2022-12-31T01:55:25.719Z,100639.66
2022-12-31T01:58:12.334Z,100630.82
2022-12-31T02:00:45.609Z,100618.38
2022-12-31T02:03:18.466Z,100612.53
2022-12-31T02:06:19.878Z,100622.95
2022-12-31T02:08:52.921Z,100618.97
2022-12-31T02:11:29.974Z,100624.95
2022-12-31T02:14:07.424Z,100624.86
2022-12-31T02:17:13.512Z,100624.13
2022-12-31T02:20:12.039Z,100617.30
2022-12-31T02:23:19.940Z,100613.95
2022-12-31T02:26:14.514Z,100623.67
2022-12-31T02:29:22.080Z,100627.43
2022-12-31T02:32:08.253Z,100639.09
2022-12-31T02:34:48.756Z,100635.45
2022-12-31T02:37:22.989Z,100640.00
2022-12-31T02:39:54.959Z,100647.10
2022-12-31T02:42:27.603Z,100639.20
2022-12-31T02:45:01.011Z,100644.78
2022-12-31T02:47:58.461Z,100647.78
2022-12-31T02:51:04.781Z,100656.17
2022-12-31T02:53:59.036Z,100657.47
2022-12-31T02:56:39.263Z,100658.15
2022-12-31T02:59:52.303Z,100650.24
2022-12-31T03:02:26.434Z,100652.84
2022-12-31T03:05:00.292Z,100679.41
2022-12-31T03:07:34.563Z,100677.09
2022-12-31T03:10:09.152Z,100680.57
2022-12-31T03:12:49.208Z,100679.00
2022-12-31T03:15:27.212Z,100685.61
2022-12-31T03:18:15.875Z,100696.23
2022-12-31T03:21:09.967Z,100697.16
2022-12-31T03:24:03.829Z,100705.45
2022-12-31T03:26:36.849Z,100704.28
2022-12-31T03:29:09.675Z,100710.09
2022-12-31T03:31:42.437Z,100707.87
2022-12-31T03:34:15.891Z,100714.47
2022-12-31T03:36:48.705Z,100712.92
2022-12-31T03:39:21.693Z,100721.48
2022-12-31T03:41:55.263Z,100720.58
2022-12-31T03:44:28.122Z,100712.80
2022-12-31T03:47:00.985Z,100718.76
2022-12-31T03:49:33.975Z,100728.87
2022-12-31T03:52:08.927Z,100724.61
2022-12-31T03:54:41.533Z,100726.55
2022-12-31T03:57:14.864Z,100722.28
2022-12-31T03:59:48.000Z,100728.37
2022-12-31T04:02:28.118Z,100720.19
2022-12-31T04:04:56.221Z,100717.72
2022-12-31T04:07:29.301Z,100722.66
2022-12-31T04:10:02.249Z,100717.48
2022-12-31T04:12:36.029Z,100717.77
2022-12-31T04:15:11.402Z,100732.02
2022-12-31T04:17:44.397Z,100730.21
2022-12-31T04:20:19.212Z,100737.45
2022-12-31T04:22:52.139Z,100739.13
2022-12-31T04:25:25.233Z,100741.84
2022-12-31T04:27:58.090Z,100740.95
2022-12-31T04:30:31.016Z,100741.72
2022-12-31T04:33:03.991Z,100745.88
2022-12-31T04:35:38.335Z,100733.81
2022-12-31T04:38:11.235Z,100737.06
2022-12-31T04:41:03.498Z,100729.64
2022-12-31T04:43:37.564Z,100737.19
2022-12-31T04:46:10.748Z,100740.14
2022-12-31T04:48:44.264Z,100740.14
2022-12-31T04:51:17.516Z,100743.00
2022-12-31T04:53:50.718Z,100746.77
2022-12-31T04:56:24.131Z,100740.91
2022-12-31T04:58:57.454Z,100736.74
2022-12-31T05:01:30.378Z,100735.70
2022-12-31T05:04:03.661Z,100727.79
2022-12-31T05:06:36.640Z,100728.96
2022-12-31T05:09:10.715Z,100733.80
2022-12-31T05:11:43.691Z,100739.63
2022-12-31T05:14:16.572Z,100748.58
2022-12-31T05:16:49.956Z,100742.37
2022-12-31T05:19:23.078Z,100741.57
2022-12-31T05:22:13.738Z,100745.61
2022-12-31T05:24:47.118Z,100734.21
2022-12-31T05:27:20.237Z,100730.06
2022-12-31T05:29:53.266Z,100727.37
2022-12-31T05:32:26.006Z,100733.59
2022-12-31T05:34:59.988Z,100737.46
2022-12-31T05:37:33.463Z,100730.85
2022-12-31T05:40:07.698Z,100724.11
2022-12-31T05:42:41.329Z,100716.88
2022-12-31T05:45:14.381Z,100718.69
2022-12-31T05:47:47.838Z,100713.52
2022-12-31T05:50:21.755Z,100719.21
2022-12-31T05:52:56.402Z,100730.88
2022-12-31T05:55:29.835Z,100735.04
2022-12-31T05:58:02.892Z,100729.86
2022-12-31T06:00:35.862Z,100741.65
2022-12-31T06:03:09.161Z,100764.97
2022-12-31T06:05:43.846Z,100797.09
2022-12-31T06:08:16.955Z,100825.47
2022-12-31T06:10:50.172Z,100822.91
2022-12-31T06:13:23.380Z,100823.94
2022-12-31T06:15:56.512Z,100828.09
2022-12-31T06:18:30.909Z,100826.13
2022-12-31T06:21:05.333Z,100842.34
2022-12-31T06:23:38.422Z,100846.48
2022-12-31T06:26:11.913Z,100846.22
2022-12-31T06:28:45.221Z,100851.67
2022-12-31T06:31:23.188Z,100853.89
2022-12-31T06:33:56.629Z,100858.44
2022-12-31T06:36:29.936Z,100867.25
2022-12-31T06:39:04.632Z,100866.46
2022-12-31T06:41:37.879Z,100864.91
2022-12-31T06:44:11.020Z,100868.79
2022-12-31T06:46:45.542Z,100869.55
2022-12-31T06:49:18.910Z,100862.58
2022-12-31T06:51:52.550Z,100851.95
2022-12-31T06:54:25.790Z,100868.27
2022-12-31T06:56:59.989Z,100890.70
2022-12-31T06:59:33.908Z,100885.64
2022-12-31T07:02:38.636Z,100897.67
2022-12-31T07:05:28.678Z,100878.77
2022-12-31T07:08:40.376Z,100889.63
2022-12-31T07:11:23.586Z,100896.38
2022-12-31T07:14:16.899Z,100899.23
2022-12-31T07:17:03.872Z,100904.69
2022-12-31T07:19:59.852Z,100908.18
2022-12-31T07:22:33.179Z,100906.12
2022-12-31T07:25:08.694Z,100908.98
2022-12-31T07:28:06.297Z,100907.55
2022-12-31T07:31:00.330Z,100912.59
2022-12-31T07:33:55.691Z,100923.73
2022-12-31T07:36:58.905Z,100928.28
2022-12-31T07:39:48.488Z,100935.40
2022-12-31T07:42:31.895Z,100939.16
2022-12-31T07:45:45.700Z,100938.25
2022-12-31T07:48:27.953Z,100939.81
2022-12-31T07:51:01.394Z,100946.03
2022-12-31T07:53:35.031Z,100943.70
2022-12-31T07:56:09.685Z,100942.14
2022-12-31T07:59:02.862Z,100944.73
2022-12-31T08:02:00.397Z,100940.45
2022-12-31T08:05:05.405Z,100947.32
2022-12-31T08:07:46.673Z,100940.31
2022-12-31T08:10:39.275Z,100935.39
2022-12-31T08:13:13.802Z,100939.28
2022-12-31T08:15:50.123Z,100938.52
2022-12-31T08:18:23.873Z,100933.88
2022-12-31T08:21:16.648Z,100942.45
2022-12-31T08:24:14.262Z,100937.12
2022-12-31T08:26:57.576Z,100945.27
2022-12-31T08:29:49.711Z,100946.20
2022-12-31T08:32:54.320Z,100947.38
2022-12-31T08:35:43.068Z,100954.48
2022-12-31T08:38:54.307Z,100957.08
2022-12-31T08:41:46.774Z,100961.50
2022-12-31T08:44:32.931Z,100965.88
2022-12-31T08:47:32.886Z,100956.67
2022-12-31T08:50:04.694Z,100956.27
2022-12-31T08:52:38.154Z,100961.86
2022-12-31T08:55:17.697Z,100961.59
2022-12-31T08:58:22.557Z,100953.81
2022-12-31T09:00:59.461Z,100947.86
2022-12-31T09:04:15.851Z,100957.43
2022-12-31T09:06:58.923Z,100952.25
2022-12-31T09:10:02.655Z,100963.52
2022-12-31T09:12:46.269Z,100957.61
2022-12-31T09:15:49.572Z,100954.25
2022-12-31T09:18:27.126Z,100953.48
2022-12-31T09:20:58.976Z,100941.05
2022-12-31T09:23:32.139Z,100946.77
2022-12-31T09:26:41.330Z,100943.50
2022-12-31T09:30:05.379Z,100939.47
2022-12-31T09:33:12.830Z,100944.16
2022-12-31T09:35:59.968Z,100937.01
2022-12-31T09:38:55.773Z,100935.34
2022-12-31T09:41:46.227Z,100944.54
2022-12-31T09:44:44.752Z,100944.92
2022-12-31T09:47:37.187Z,100939.36
2022-12-31T09:50:38.441Z,100948.96
2022-12-31T09:53:36.826Z,100935.87
2022-12-31T09:56:37.356Z,100944.69
2022-12-31T09:59:21.055Z,100940.52
2022-12-31T10:02:14.015Z,100947.14
2022-12-31T10:05:06.828Z,100946.48
2022-12-31T10:07:50.389Z,100942.33
2022-12-31T10:10:41.951Z,100948.55
2022-12-31T10:13:36.064Z,100948.68
2022-12-31T10:16:44.413Z,100951.28
2022-12-31T10:19:46.532Z,100947.02
2022-12-31T10:22:48.717Z,100940.53
2022-12-31T10:25:50.432Z,100939.86
2022-12-31T10:28:34.413Z,100937.80
2022-12-31T10:31:20.447Z,100938.05
2022-12-31T10:34:15.411Z,100935.84
2022-12-31T10:37:13.906Z,100929.23
2022-12-31T10:40:02.991Z,100935.33
2022-12-31T10:42:52.212Z,100930.01
2022-12-31T10:46:22.900Z,100928.20
2022-12-31T10:49:35.230Z,100935.19
2022-12-31T10:52:41.717Z,100937.42
2022-12-31T10:55:46.948Z,100942.33
2022-12-31T10:58:42.523Z,100936.91
2022-12-31T11:01:34.212Z,100930.66
2022-12-31T11:04:43.011Z,100935.71
2022-12-31T11:07:46.876Z,100934.41
2022-12-31T11:10:44.539Z,100934.41
2022-12-31T11:13:55.649Z,100932.62
2022-12-31T11:17:00.427Z,100936.25
2022-12-31T11:19:43.944Z,100935.86
2022-12-31T11:22:58.382Z,100937.52
2022-12-31T11:25:35.566Z,100938.95
2022-12-31T11:28:23.039Z,100954.91
2022-12-31T11:31:13.260Z,100947.90
2022-12-31T11:34:10.338Z,100947.00
2022-12-31T11:36:56.878Z,100941.41
2022-12-31T11:39:42.810Z,100957.88
2022-12-31T11:42:47.077Z,100955.95
2022-12-31T11:45:55.189Z,100958.04
2022-12-31T11:49:05.799Z,100961.80
2022-12-31T11:52:34.356Z,100970.20
2022-12-31T11:55:37.489Z,100970.08
2022-12-31T11:58:22.069Z,100970.61
2022-12-31T12:01:01.556Z,100971.24
2022-12-31T12:03:36.339Z,100963.99
2022-12-31T12:06:12.372Z,100975.40
2022-12-31T12:08:46.970Z,100975.93
2022-12-31T12:11:25.992Z,100981.12
2022-12-31T12:13:59.392Z,100977.86
2022-12-31T12:16:32.300Z,100978.26
2022-12-31T12:19:09.215Z,100980.98
2022-12-31T12:21:47.815Z,100984.21
2022-12-31T12:24:30.288Z,100978.48
2022-12-31T12:27:04.123Z,100988.63
2022-12-31T12:29:38.146Z,100992.39
2022-12-31T12:32:25.276Z,101000.17
2022-12-31T12:34:58.322Z,101008.09
2022-12-31T12:37:34.659Z,101006.52
2022-12-31T12:40:33.643Z,101008.72
2022-12-31T12:43:03.214Z,101010.14
2022-12-31T12:45:52.335Z,101012.73
2022-12-31T12:48:40.147Z,101017.12
2022-12-31T12:51:26.981Z,101015.15
2022-12-31T12:54:31.271Z,101011.92
2022-12-31T12:57:09.055Z,101018.55
2022-12-31T13:00:16.673Z,101015.95
2022-12-31T13:03:30.546Z,101022.57
2022-12-31T13:06:22.760Z,101028.02
2022-12-31T13:09:36.199Z,101032.12
2022-12-31T13:12:17.364Z,101030.16
2022-12-31T13:15:00.772Z,101031.04
2022-12-31T13:17:59.970Z,101022.22
2022-12-31T13:21:01.148Z,101021.69
2022-12-31T13:23:44.572Z,101020.92
2022-12-31T13:26:22.234Z,101023.47
2022-12-31T13:28:55.375Z,101029.67
2022-12-31T13:31:35.410Z,101027.75
2022-12-31T13:34:15.679Z,101034.86
2022-12-31T13:36:50.178Z,101031.48
2022-12-31T13:39:31.536Z,101047.80
2022-12-31T13:42:18.108Z,101051.95
2022-12-31T13:45:03.857Z,101052.20
2022-12-31T13:47:53.719Z,101066.17
2022-12-31T13:50:46.205Z,101065.36
2022-12-31T13:53:27.249Z,101066.12
2022-12-31T13:56:07.952Z,101070.41
2022-12-31T13:59:06.801Z,101074.16
2022-12-31T14:01:56.841Z,101074.91
2022-12-31T14:04:37.426Z,101081.37
2022-12-31T14:07:35.396Z,101084.21
2022-12-31T14:10:03.818Z,101083.39
2022-12-31T14:13:00.515Z,101086.64
2022-12-31T14:15:40.303Z,101091.16
2022-12-31T14:18:25.256Z,101089.59
2022-12-31T14:21:14.930Z,101092.46
2022-12-31T14:23:55.569Z,101094.27
2022-12-31T14:26:39.222Z,101099.19
2022-12-31T14:29:19.566Z,101102.82
2022-12-31T14:31:59.799Z,101104.12
2022-12-31T14:35:18.565Z,101109.02
2022-12-31T14:38:19.904Z,101108.52
2022-12-31T14:41:14.973Z,101103.33
2022-12-31T14:44:18.878Z,101107.83
2022-12-31T14:47:22.288Z,101110.03
2022-12-31T14:50:17.373Z,101118.87
2022-12-31T14:53:06.688Z,101128.70
2022-12-31T14:55:41.800Z,101132.83
2022-12-31T14:58:39.614Z,101141.90
2022-12-31T15:01:22.864Z,101134.88
2022-12-31T15:03:58.642Z,101140.83
2022-12-31T15:06:49.018Z,101144.20
2022-12-31T15:09:54.440Z,101145.47
2022-12-31T15:12:53.137Z,101145.69
2022-12-31T15:15:31.510Z,101141.52
2022-12-31T15:18:33.004Z,101149.00
2022-12-31T15:21:31.272Z,101155.11
2022-12-31T15:24:17.024Z,101155.43
2022-12-31T15:27:02.119Z,101152.55
2022-12-31T15:29:44.236Z,101154.89
2022-12-31T15:32:27.952Z,101159.27
2022-12-31T15:35:23.945Z,101163.77
2022-12-31T15:38:03.689Z,101161.69
2022-12-31T15:40:46.594Z,101168.77
2022-12-31T15:43:48.415Z,101163.40
2022-12-31T15:46:27.637Z,101172.45
2022-12-31T15:49:16.080Z,101176.41
2022-12-31T15:52:05.153Z,101168.39
2022-12-31T15:54:47.891Z,101170.00
2022-12-31T15:57:26.435Z,101166.53
2022-12-31T16:00:05.944Z,101160.06
2022-12-31T16:02:39.402Z,101168.02
2022-12-31T16:05:29.219Z,101165.80
2022-12-31T16:08:03.572Z,101172.63
2022-12-31T16:10:36.391Z,101169.60
2022-12-31T16:13:11.218Z,101167.87
2022-12-31T16:15:43.991Z,101176.17
2022-12-31T16:18:22.619Z,101171.39
2022-12-31T16:20:52.183Z,101170.31
2022-12-31T16:23:28.064Z,101176.02
2022-12-31T16:26:04.577Z,101174.62
2022-12-31T16:28:38.053Z,101180.39
2022-12-31T16:31:15.498Z,101172.81
2022-12-31T16:33:48.955Z,101187.64
2022-12-31T16:36:24.696Z,101184.05
2022-12-31T16:39:18.446Z,101182.75
2022-12-31T16:41:51.442Z,101186.42
2022-12-31T16:44:29.473Z,101194.62
2022-12-31T16:47:04.370Z,101195.12
2022-12-31T16:49:40.181Z,101192.39
2022-12-31T16:52:35.211Z,101195.77
2022-12-31T16:55:15.218Z,101200.80
2022-12-31T16:57:55.861Z,101203.71
2022-12-31T17:00:29.165Z,101214.23
2022-12-31T17:03:07.515Z,101219.36
2022-12-31T17:06:12.753Z,101215.38
2022-12-31T17:08:54.754Z,101218.67
2022-12-31T17:11:33.978Z,101208.33
2022-12-31T17:14:16.994Z,101204.09
2022-12-31T17:17:09.741Z,101203.45
2022-12-31T17:19:50.739Z,101208.27
2022-12-31T17:22:39.190Z,101205.44
2022-12-31T17:25:25.660Z,101202.21
2022-12-31T17:28:23.023Z,101198.92
2022-12-31T17:30:58.717Z,101202.73
2022-12-31T17:33:32.320Z,101205.83
2022-12-31T17:36:25.352Z,101201.66
2022-12-31T17:38:59.870Z,101207.08
2022-12-31T17:41:33.011Z,101212.11
2022-12-31T17:44:06.872Z,101225.94
2022-12-31T17:46:41.319Z,101216.82
2022-12-31T17:49:15.661Z,101221.06
2022-12-31T17:51:48.607Z,101230.06
2022-12-31T17:54:21.639Z,101230.02
2022-12-31T17:56:54.822Z,101225.30
2022-12-31T17:59:29.973Z,101232.55
2022-12-31T18:02:05.050Z,101233.05
2022-12-31T18:04:38.243Z,101235.34
2022-12-31T18:07:11.372Z,101229.31
2022-12-31T18:09:44.548Z,101228.08
2022-12-31T18:12:18.111Z,101236.28
2022-12-31T18:14:51.444Z,101233.30
2022-12-31T18:17:24.425Z,101228.91
2022-12-31T18:20:06.140Z,101231.50
2022-12-31T18:22:32.762Z,101225.63
2022-12-31T18:25:07.685Z,101228.17
2022-12-31T18:27:42.368Z,101215.84
2022-12-31T18:30:19.423Z,101226.79
2022-12-31T18:32:52.863Z,101222.70
2022-12-31T18:36:07.752Z,101222.95
2022-12-31T18:38:00.356Z,101215.80
2022-12-31T18:40:34.314Z,101216.87
2022-12-31T18:43:07.245Z,101219.83
2022-12-31T18:45:40.133Z,101217.94
2022-12-31T18:48:13.652Z,101219.32
2022-12-31T18:50:47.482Z,101220.86
2022-12-31T18:53:23.154Z,101217.67
2022-12-31T18:55:59.023Z,101212.95
2022-12-31T18:58:32.066Z,101220.86
2022-12-31T19:01:05.099Z,101219.20
2022-12-31T19:03:38.248Z,101212.98
2022-12-31T19:06:11.490Z,101211.45
2022-12-31T19:08:44.963Z,101207.13
2022-12-31T19:11:18.729Z,101207.03
2022-12-31T19:13:51.927Z,101212.26
2022-12-31T19:16:24.917Z,101209.06
2022-12-31T19:18:57.996Z,101208.38
2022-12-31T19:21:31.144Z,101213.25
2022-12-31T19:24:03.978Z,101211.80
2022-12-31T19:26:43.180Z,101216.08
2022-12-31T19:29:21.714Z,101213.82
2022-12-31T19:31:54.886Z,101221.58
2022-12-31T19:34:28.876Z,101224.80
2022-12-31T19:37:01.734Z,101221.91
2022-12-31T19:39:35.154Z,101223.64
2022-12-31T19:42:09.602Z,101214.98
2022-12-31T19:44:42.987Z,101225.02
2022-12-31T19:47:16.408Z,101227.30
2022-12-31T19:49:49.367Z,101224.95
2022-12-31T19:52:22.680Z,101219.48
2022-12-31T19:54:55.541Z,101216.73
2022-12-31T19:57:28.515Z,101219.38
2022-12-31T20:00:01.262Z,101218.77
2022-12-31T20:02:36.572Z,101224.71
2022-12-31T20:05:11.559Z,101221.27
2022-12-31T20:07:45.032Z,101240.30
2022-12-31T20:10:17.770Z,101244.52
2022-12-31T20:12:50.717Z,101240.80
2022-12-31T20:15:23.641Z,101239.91
2022-12-31T20:17:58.924Z,101238.30
2022-12-31T20:20:31.754Z,101243.91
2022-12-31T20:23:04.658Z,101237.14
2022-12-31T20:25:38.454Z,101244.89
2022-12-31T20:28:11.381Z,101256.63
2022-12-31T20:30:44.369Z,101254.63
2022-12-31T20:33:19.215Z,101255.61
2022-12-31T20:35:52.554Z,101249.83
2022-12-31T20:38:25.209Z,101249.75
2022-12-31T20:41:08.454Z,101247.98
2022-12-31T20:43:42.321Z,101242.74
2022-12-31T20:46:22.670Z,101238.88
2022-12-31T20:48:59.730Z,101233.91
2022-12-31T20:51:35.391Z,101232.62
2022-12-31T20:54:11.156Z,101236.48
2022-12-31T20:56:44.134Z,101232.77
2022-12-31T20:59:16.855Z,101225.18
2022-12-31T21:02:20.155Z,101223.30
2022-12-31T21:04:25.941Z,101228.93
2022-12-31T21:06:58.950Z,101222.63
2022-12-31T21:09:31.907Z,101214.36
2022-12-31T21:12:23.150Z,101209.03
2022-12-31T21:14:57.162Z,101209.34
2022-12-31T23:05:52.179Z,101178.81
2022-12-31T23:08:26.965Z,101177.04
2022-12-31T23:11:01.562Z,101178.03
2022-12-31T23:13:58.782Z,101182.97
2022-12-31T23:16:50.135Z,101180.36
2022-12-31T23:19:41.248Z,101192.44
2022-12-31T23:22:32.081Z,101191.25
2022-12-31T23:25:05.392Z,101195.30
2022-12-31T23:27:38.334Z,101193.45
2022-12-31T23:30:15.595Z,101187.31
2022-12-31T23:32:48.718Z,101192.13
2022-12-31T23:35:22.139Z,101196.23
2022-12-31T23:37:55.266Z,101193.34
2022-12-31T23:40:29.858Z,101197.44
2022-12-31T23:43:05.766Z,101189.63
2022-12-31T23:45:39.170Z,101188.08
2022-12-31T23:48:12.449Z,101188.75
2022-12-31T23:50:52.456Z,101200.67
2022-12-31T23:53:19.905Z,101188.63
2022-12-31T23:55:53.643Z,101192.98
2022-12-31T23:58:26.525Z,101188.72
